EW8041 Weather Reports


Display with metric or nautical units.
time (UTC)temp
F
wind
direction
speed
MPH
gust
MPH
rain 1hr
in
rain 24hr
in
rain mn
in
humidity
%
barometer
mb
20200227235124 42 0.0 0.0 0.00 0.00 0.00 53 1019.7
20200227233924 43 202 0.0 3.0 0.00 0.00 0.00 52 1019.7
20200227232731 44 247 0.0 1.0 0.00 0.00 0.00 50 1019.7
20200227231525 44 208 2.0 3.0 0.00 0.00 0.00 49 1019.7
20200227230320 44 251 2.0 3.0 0.00 0.00 0.00 47 1019.7
20200227225133 45 255 2.0 4.0 0.00 0.00 0.00 45 1019.6
20200227223927 45 210 3.0 4.0 0.00 0.00 0.00 44 1019.7
20200227222722 45 254 3.0 7.0 0.00 0.00 0.00 46 1019.7
20200227221534 45 216 3.0 4.0 0.00 0.00 0.00 46 1019.6
20200227220323 46 214 4.0 7.0 0.00 0.00 0.00 45 1019.6
20200227215137 46 243 4.0 5.0 0.00 0.00 0.00 46 1019.7
20200227213931 46 219 2.0 5.0 0.00 0.00 0.00 45 1019.8
20200227212726 46 265 2.0 6.0 0.00 0.00 0.00 46 1019.8
20200227211521 0 0.0 0.0 0.00 0.00 0.00 1020.0
20200227210333 46 230 2.0 5.0 0.00 0.00 0.00 47 1020.0
20200227205128 46 257 4.0 8.0 0.00 0.00 0.00 46 1019.9
20200227203923 46 188 5.0 6.0 0.00 0.00 0.00 48 1019.9
20200227202735 47 202 4.0 6.0 0.00 0.00 0.00 50 1020.0
20200227201530 47 181 2.0 5.0 0.00 0.00 0.00 47 1020.3
20200227200337 46 279 2.0 4.0 0.00 0.00 0.00 46 1020.5
20200227195132 45 212 5.0 6.0 0.00 0.00 0.00 46 1020.4
20200227193927 44 188 2.0 2.0 0.00 0.00 0.00 48 1020.4
20200227192721 44 291 3.0 4.0 0.00 0.00 0.00 48 1020.6
20200227191528 45 310 2.0 4.0 0.00 0.00 0.00 48 1020.7
20200227190322 44 233 2.0 3.0 0.00 0.00 0.00 50 1021.0
20200227185122 44 254 2.0 6.0 0.00 0.00 0.00 49 1021.2
20200227183935 43 238 2.0 3.0 0.00 0.00 0.00 51 1021.5
20200227182729 43 335 3.0 5.0 0.00 0.00 0.00 53 1021.6
20200227181524 43 336 2.0 4.0 0.00 0.00 0.00 54 1021.9
20200227180337 42 188 3.0 5.0 0.00 0.00 0.00 55 1022.1
20200227175132 42 238 2.0 3.0 0.00 0.00 0.00 55 1022.2
20200227173926 41 232 2.0 2.0 0.00 0.00 0.00 57 1022.3
20200227172721 41 295 3.0 4.0 0.00 0.00 0.00 57 1022.6
20200227171534 41 216 3.0 5.0 0.00 0.00 0.00 58 1022.7
20200227170329 40 261 4.0 6.0 0.00 0.00 0.00 58 1023.0
20200227165123 39 288 2.0 4.0 0.00 0.00 0.00 61 1023.1
20200227163936 38 7 3.0 6.0 0.00 0.00 0.00 63 1023.0
20200227162731 37 2 4.0 5.0 0.00 0.00 0.00 64 1022.9
20200227161526 38 341 4.0 6.0 0.00 0.01 0.00 63 1022.9
20200227160321 36 9 3.0 6.0 0.00 0.01 0.00 65 1022.7
20200227155134 35 243 2.0 2.0 0.00 0.01 0.00 67 1022.7
20200227153928 35 348 4.0 6.0 0.00 0.01 0.00 65 1022.8
20200227152723 36 319 2.0 3.0 0.00 0.01 0.00 66 1022.8
20200227151535 35 315 3.0 4.0 0.00 0.01 0.00 65 1022.7
20200227150330 35 7 3.0 5.0 0.00 0.01 0.00 64 1022.8
20200227145124 35 309 3.0 5.0 0.00 0.01 0.00 64 1022.5
20200227143925 34 338 3.0 6.0 0.00 0.01 0.00 65 1022.4
20200227142720 34 328 2.0 4.0 0.00 0.01 0.00 70 1022.2
20200227141527 34 292 2.0 3.0 0.00 0.01 0.00 75 1022.2
20200227140321 34 15 2.0 4.0 0.00 0.01 0.00 77 1022.0
20200227135134 33 281 0.0 4.0 0.00 0.01 0.00 76 1021.9
20200227133928 34 317 1.0 4.0 0.00 0.01 0.00 77 1021.8
20200227132723 33 317 1.0 3.0 0.00 0.01 0.00 79 1021.6
20200227131536 32 324 1.0 2.0 0.00 0.01 0.00 80 1021.5
20200227130330 32 0.0 0.0 0.00 0.01 0.00 81 1021.2
20200227125124 29 0.0 0.0 0.00 0.01 0.00 90 1021.1
20200227123931 28 0.0 0.0 0.00 0.01 0.00 89 1020.9
20200227122725 28 0.0 0.0 0.00 0.01 0.00 88 1020.8
20200227121520 28 0.0 0.0 0.00 0.01 0.00 88 1020.7
20200227120320 28 0.0 0.0 0.00 0.01 0.00 88 1020.6
20200227115133 29 0.0 0.0 0.00 0.01 0.00 86 1020.5
20200227113928 29 0.0 0.0 0.00 0.01 0.00 85 1020.6
20200227112723 29 0.0 0.0 0.00 0.01 0.00 82 1020.3
20200227111536 30 0.0 0.0 0.00 0.01 0.00 81 1020.2
20200227110330 30 0.0 0.0 0.00 0.01 0.00 81 1020.3
20200227105125 30 0.0 0.0 0.00 0.01 0.00 81 1020.4
20200227103938 30 0.0 0.0 0.00 0.01 0.00 81 1020.1
20200227102732 31 344 2.0 3.0 0.00 0.01 0.00 80 1020.2
20200227101527 31 329 1.0 3.0 0.00 0.01 0.00 80 1020.1
20200227100322 31 0.0 0.0 0.00 0.01 0.00 79 1020.2
20200227095134 31 318 1.0 2.0 0.00 0.01 0.00 78 1020.0
20200227093929 32 346 1.0 3.0 0.00 0.01 0.00 77 1019.9
20200227092724 32 303 2.0 3.0 0.00 0.01 0.00 76 1020.0
20200227091536 32 317 1.0 3.0 0.00 0.01 0.00 75 1019.9
20200227090332 33 300 2.0 4.0 0.00 0.01 0.00 74 1019.9
20200227085126 33 311 3.0 6.0 0.00 0.01 0.00 70 1020.0
20200227083921 34 32 5.0 10.0 0.00 0.01 0.00 68 1019.6
20200227082732 34 311 3.0 4.0 0.00 0.01 0.00 69 1019.9
20200227081527 34 340 5.0 8.0 0.00 0.01 0.00 69 1019.9
20200227080322 34 343 4.0 6.0 0.00 0.01 0.00 68 1019.7
20200227075122 34 312 5.0 8.0 0.00 0.01 0.00 67 1019.7
20200227073929 34 333 4.0 6.0 0.00 0.01 0.00 67 1019.7
20200227072723 35 304 4.0 6.0 0.00 0.01 0.00 68 1019.6
20200227071536 35 328 4.0 7.0 0.00 0.01 0.00 68 1019.7
20200227070331 35 332 5.0 9.0 0.00 0.01 0.00 67 1019.7
20200227065126 35 355 5.0 7.0 0.00 0.01 0.00 67 1019.7
20200227063920 35 331 5.0 8.0 0.00 0.01 0.00 66 1019.8
20200227062733 36 309 3.0 5.0 0.00 0.01 0.00 65 1019.6
20200227061528 0 0.0 0.0 0.00 0.01 0.00 1019.5
20200227060323 36 337 3.0 6.0 0.00 0.01 0.00 67 1019.3
20200227055129 36 329 3.0 5.0 0.00 0.01 0.01 67 1019.3
20200227053924 36 318 4.0 5.0 0.00 0.01 0.01 66 1019.5
20200227052724 36 344 5.0 9.0 0.00 0.01 0.01 69 1019.3
20200227051537 36 285 3.0 4.0 0.00 0.01 0.01 71 1019.5
20200227050332 36 311 5.0 9.0 0.00 0.01 0.01 72 1019.4
20200227045126 36 339 4.0 6.0 0.00 0.01 0.01 72 1019.3
20200227043921 36 326 5.0 7.0 0.00 0.01 0.01 72 1019.2
20200227042733 37 338 4.0 6.0 0.00 0.01 0.01 72 1019.2
20200227041528 37 313 5.0 7.0 0.00 0.01 0.01 71 1019.2
20200227040323 37 299 5.0 7.0 0.00 0.01 0.01 73 1019.0
20200227035136 37 315 3.0 4.0 0.00 0.01 0.01 74 1018.8
20200227033930 37 287 4.0 6.0 0.00 0.01 0.01 74 1018.5
20200227032725 37 340 5.0 9.0 0.00 0.01 0.01 74 1018.2
20200227031537 37 339 4.0 6.0 0.00 0.01 0.01 74 1018.1
20200227030332 38 12 5.0 7.0 0.00 0.01 0.01 74 1018.1
20200227025127 38 326 4.0 10.0 0.00 0.01 0.01 73 1018.0
20200227023921 38 337 2.0 4.0 0.00 0.01 0.01 74 1017.8
20200227022734 38 303 2.0 3.0 0.00 0.01 0.01 73 1017.6
20200227021528 38 300 2.0 4.0 0.00 0.01 0.01 74 1017.5
20200227020323 38 301 4.0 5.0 0.00 0.01 0.01 74 1017.2
20200227015136 38 349 4.0 7.0 0.00 0.01 0.01 74 1017.3
20200227013924 38 341 3.0 4.0 0.00 0.01 0.01 74 1017.2
20200227012731 38 290 4.0 8.0 0.00 0.01 0.01 74 1016.9
20200227011526 38 354 5.0 8.0 0.00 0.01 0.01 76 1017.0
20200227010320 38 348 3.0 5.0 0.00 0.01 0.01 77 1016.7
20200227005121 38 319 4.0 6.0 0.00 0.01 0.01 78 1016.6
20200227003934 38 288 2.0 3.0 0.00 0.01 0.01 80 1016.6
20200227002728 38 351 5.0 7.0 0.00 0.01 0.01 80 1016.6
20200227001523 38 315 5.0 7.0 0.00 0.01 0.01 81 1016.4
20200227000336 38 335 3.0 5.0 0.00 0.01 0.01 81 1016.4